FDX915 RPVE-RPLL
Flight info
| Callsign | FDX915 |
|---|---|
| Flight time | 0h 37m |
| Altitude | 26000 |
| Route | MINOR8A MINOR B473 LAIYA LAIYA3R |
| Aircraft | B738/M-SDE2E3FGHIRWXY/LB1 |
Departure
| Time | 2026-04-24 03:58 |
|---|---|
| Airport | Godofredo P. Ramos Airport (RPVE) |
Arrival
| Time | 2026-04-24 04:35 |
|---|---|
| Airport | Ninoy Aquino International Airport (RPLL) |
| Time | Latitude | Longitude | Altitude | Speed | Heading |
|---|---|---|---|---|---|
| 2026-04-24 03:36 | 11.92508 | 121.96303 | 25 ft | 0 kts | 63° |
| 2026-04-24 03:45 | 11.92500 | 121.96288 | 33 ft | 2 kts | 54° |
| 2026-04-24 03:46 | 11.92488 | 121.96276 | 32 ft | 2 kts | 19° |
| 2026-04-24 03:46 | 11.92473 | 121.96277 | 27 ft | 1 kts | 334° |
| 2026-04-24 03:46 | 11.92470 | 121.96278 | 27 ft | 0 kts | 333° |
| 2026-04-24 03:52 | 11.92472 | 121.96277 | 25 ft | 1 kts | 333° |
| 2026-04-24 03:52 | 11.92493 | 121.96268 | 32 ft | 8 kts | 337° |
| 2026-04-24 03:53 | 11.92528 | 121.96248 | 27 ft | 12 kts | 330° |
| 2026-04-24 03:53 | 11.92620 | 121.96203 | 25 ft | 18 kts | 343° |
| 2026-04-24 03:53 | 11.92753 | 121.96146 | 26 ft | 24 kts | 333° |
| 2026-04-24 03:53 | 11.92800 | 121.96089 | 27 ft | 8 kts | 265° |
| 2026-04-24 03:54 | 11.92768 | 121.96019 | 27 ft | 14 kts | 243° |
| 2026-04-24 03:54 | 11.92707 | 121.95898 | 27 ft | 25 kts | 243° |
| 2026-04-24 03:54 | 11.92615 | 121.95714 | 29 ft | 34 kts | 243° |
| 2026-04-24 03:54 | 11.92493 | 121.95472 | 25 ft | 42 kts | 243° |
| 2026-04-24 03:55 | 11.92348 | 121.95185 | 24 ft | 42 kts | 243° |
| 2026-04-24 03:55 | 11.92248 | 121.95023 | 30 ft | 10 kts | 287° |
| 2026-04-24 03:55 | 11.92267 | 121.95015 | 26 ft | 3 kts | 32° |
| 2026-04-24 03:55 | 11.92281 | 121.95049 | 27 ft | 8 kts | 67° |
| 2026-04-24 03:56 | 11.92287 | 121.95062 | 28 ft | 0 kts | 63° |
| 2026-04-24 03:56 | 11.92290 | 121.95068 | 28 ft | 1 kts | 63° |
| 2026-04-24 03:57 | 11.92292 | 121.95073 | 26 ft | 9 kts | 62° |
| 2026-04-24 03:57 | 11.92461 | 121.95409 | 24 ft | 95 kts | 63° |
| 2026-04-24 03:57 | 11.92875 | 121.96243 | 84 ft | 160 kts | 64° |
| 2026-04-24 03:58 | 11.93355 | 121.97256 | 979 ft | 157 kts | 64° |
| 2026-04-24 03:58 | 11.93855 | 121.98244 | 1901 ft | 155 kts | 64° |
| 2026-04-24 03:58 | 11.94345 | 121.99206 | 2805 ft | 148 kts | 64° |
| 2026-04-24 03:58 | 11.94808 | 122.00119 | 3449 ft | 150 kts | 64° |
| 2026-04-24 03:59 | 11.95327 | 122.01149 | 3692 ft | 178 kts | 64° |
| 2026-04-24 03:59 | 11.95983 | 122.02335 | 3942 ft | 206 kts | 53° |
| 2026-04-24 03:59 | 11.97115 | 122.03353 | 4112 ft | 231 kts | 33° |
| 2026-04-24 03:59 | 11.98593 | 122.04148 | 4405 ft | 250 kts | 28° |
| 2026-04-24 04:00 | 12.00226 | 122.04948 | 4712 ft | 268 kts | 27° |
| 2026-04-24 04:00 | 12.01928 | 122.05784 | 5413 ft | 273 kts | 28° |
| 2026-04-24 04:00 | 12.03634 | 122.06635 | 6220 ft | 275 kts | 28° |
| 2026-04-24 04:00 | 12.05368 | 122.07508 | 6895 ft | 279 kts | 28° |
| 2026-04-24 04:01 | 12.07120 | 122.08394 | 7620 ft | 282 kts | 27° |
| 2026-04-24 04:01 | 12.08890 | 122.09289 | 8356 ft | 285 kts | 27° |
| 2026-04-24 04:01 | 12.10681 | 122.10194 | 9065 ft | 289 kts | 27° |
| 2026-04-24 04:01 | 12.12498 | 122.11113 | 9768 ft | 293 kts | 27° |
| 2026-04-24 04:02 | 12.14348 | 122.12049 | 10311 ft | 303 kts | 27° |
| 2026-04-24 04:02 | 12.15630 | 122.12699 | 10404 ft | 319 kts | 27° |
| 2026-04-24 04:02 | 12.18407 | 122.14105 | 10697 ft | 344 kts | 26° |
| 2026-04-24 04:02 | 12.19841 | 122.14831 | 10982 ft | 350 kts | 26° |
| 2026-04-24 04:03 | 12.22039 | 122.15944 | 11573 ft | 354 kts | 26° |
| 2026-04-24 04:03 | 12.24252 | 122.17065 | 12204 ft | 357 kts | 26° |
| 2026-04-24 04:03 | 12.26491 | 122.18200 | 12776 ft | 361 kts | 26° |
| 2026-04-24 04:03 | 12.28757 | 122.19348 | 13351 ft | 366 kts | 26° |
| 2026-04-24 04:04 | 12.31049 | 122.20510 | 13902 ft | 370 kts | 26° |
| 2026-04-24 04:04 | 12.33365 | 122.21673 | 14444 ft | 372 kts | 23° |
| 2026-04-24 04:04 | 12.35869 | 122.22321 | 14947 ft | 375 kts | 2° |
| 2026-04-24 04:04 | 12.38449 | 122.22000 | 15476 ft | 376 kts | 342° |
| 2026-04-24 04:05 | 12.40795 | 122.20834 | 15985 ft | 377 kts | 326° |
| 2026-04-24 04:05 | 12.42988 | 122.19345 | 16476 ft | 380 kts | 325° |
| 2026-04-24 04:05 | 12.45176 | 122.17798 | 16952 ft | 384 kts | 324° |
| 2026-04-24 04:05 | 12.47373 | 122.16229 | 17444 ft | 386 kts | 324° |
| 2026-04-24 04:06 | 12.49586 | 122.14655 | 17940 ft | 389 kts | 324° |
| 2026-04-24 04:06 | 12.51822 | 122.13075 | 18385 ft | 392 kts | 324° |
| 2026-04-24 04:06 | 12.54076 | 122.11492 | 18790 ft | 395 kts | 325° |
| 2026-04-24 04:06 | 12.56351 | 122.09903 | 19202 ft | 397 kts | 325° |
| 2026-04-24 04:07 | 12.58643 | 122.08305 | 19608 ft | 400 kts | 325° |
| 2026-04-24 04:07 | 12.60952 | 122.06697 | 19999 ft | 403 kts | 325° |
| 2026-04-24 04:07 | 12.63275 | 122.05080 | 20401 ft | 405 kts | 325° |
| 2026-04-24 04:07 | 12.65614 | 122.03454 | 20799 ft | 408 kts | 326° |
| 2026-04-24 04:08 | 12.67936 | 122.01838 | 21169 ft | 411 kts | 326° |
| 2026-04-24 04:08 | 12.70307 | 122.00189 | 21540 ft | 413 kts | 326° |
| 2026-04-24 04:08 | 12.72694 | 121.98528 | 21913 ft | 416 kts | 326° |
| 2026-04-24 04:08 | 12.75094 | 121.96856 | 22269 ft | 419 kts | 326° |
| 2026-04-24 04:09 | 12.77516 | 121.95170 | 22632 ft | 422 kts | 326° |
| 2026-04-24 04:09 | 12.79948 | 121.93476 | 23004 ft | 424 kts | 326° |
| 2026-04-24 04:09 | 12.82398 | 121.91769 | 23314 ft | 428 kts | 326° |
| 2026-04-24 04:09 | 12.84868 | 121.90047 | 23646 ft | 430 kts | 326° |
| 2026-04-24 04:10 | 12.87344 | 121.88321 | 23964 ft | 431 kts | 325° |
| 2026-04-24 04:10 | 12.89829 | 121.86588 | 24290 ft | 432 kts | 325° |
| 2026-04-24 04:10 | 12.92317 | 121.84853 | 24626 ft | 433 kts | 325° |
| 2026-04-24 04:11 | 12.97304 | 121.81373 | 25352 ft | 433 kts | 325° |
| 2026-04-24 04:11 | 12.99790 | 121.79638 | 25783 ft | 431 kts | 325° |
| 2026-04-24 04:11 | 13.02261 | 121.77913 | 25920 ft | 426 kts | 325° |
| 2026-04-24 04:11 | 13.04666 | 121.76234 | 25921 ft | 410 kts | 325° |
| 2026-04-24 04:12 | 13.06986 | 121.74614 | 25886 ft | 399 kts | 325° |
| 2026-04-24 04:12 | 13.09269 | 121.73020 | 25610 ft | 394 kts | 325° |
| 2026-04-24 04:12 | 13.11523 | 121.71444 | 25272 ft | 392 kts | 325° |
| 2026-04-24 04:12 | 13.13771 | 121.69873 | 24911 ft | 389 kts | 325° |
| 2026-04-24 04:13 | 13.16003 | 121.68311 | 24517 ft | 388 kts | 325° |
| 2026-04-24 04:13 | 13.18234 | 121.66751 | 24128 ft | 388 kts | 325° |
| 2026-04-24 04:13 | 13.20459 | 121.65195 | 23733 ft | 387 kts | 325° |
| 2026-04-24 04:13 | 13.22683 | 121.63638 | 23301 ft | 386 kts | 325° |
| 2026-04-24 04:14 | 13.24899 | 121.62088 | 22882 ft | 385 kts | 325° |
| 2026-04-24 04:14 | 13.27101 | 121.60547 | 22483 ft | 382 kts | 325° |
| 2026-04-24 04:14 | 13.29263 | 121.59033 | 22094 ft | 380 kts | 325° |
| 2026-04-24 04:14 | 13.31439 | 121.57509 | 21713 ft | 377 kts | 325° |
| 2026-04-24 04:15 | 13.33600 | 121.55996 | 21333 ft | 375 kts | 325° |
| 2026-04-24 04:15 | 13.35749 | 121.54490 | 20954 ft | 373 kts | 325° |
| 2026-04-24 04:15 | 13.37884 | 121.52994 | 20576 ft | 371 kts | 325° |
| 2026-04-24 04:15 | 13.40009 | 121.51505 | 20203 ft | 369 kts | 325° |
| 2026-04-24 04:16 | 13.42119 | 121.50025 | 19829 ft | 366 kts | 325° |
| 2026-04-24 04:16 | 13.44215 | 121.48556 | 19469 ft | 364 kts | 325° |
| 2026-04-24 04:16 | 13.46301 | 121.47092 | 19087 ft | 363 kts | 325° |
| 2026-04-24 04:16 | 13.48382 | 121.45633 | 18724 ft | 361 kts | 325° |
| 2026-04-24 04:17 | 13.50436 | 121.44191 | 18381 ft | 358 kts | 325° |
| 2026-04-24 04:17 | 13.52498 | 121.42743 | 17962 ft | 358 kts | 325° |
| 2026-04-24 04:17 | 13.54541 | 121.41310 | 17730 ft | 351 kts | 325° |
| 2026-04-24 04:17 | 13.56533 | 121.39911 | 17561 ft | 343 kts | 325° |
| 2026-04-24 04:18 | 13.58475 | 121.38525 | 17284 ft | 338 kts | 324° |
| 2026-04-24 04:18 | 13.60369 | 121.37124 | 17020 ft | 334 kts | 323° |
| 2026-04-24 04:18 | 13.62243 | 121.35722 | 16665 ft | 332 kts | 323° |
| 2026-04-24 04:18 | 13.64104 | 121.34326 | 16330 ft | 331 kts | 323° |
| 2026-04-24 04:19 | 13.65961 | 121.32935 | 15997 ft | 329 kts | 323° |
| 2026-04-24 04:19 | 13.67812 | 121.31552 | 15662 ft | 328 kts | 323° |
| 2026-04-24 04:19 | 13.69655 | 121.30176 | 15336 ft | 327 kts | 323° |
| 2026-04-24 04:19 | 13.71494 | 121.28804 | 14998 ft | 326 kts | 323° |
| 2026-04-24 04:20 | 13.73331 | 121.27433 | 14661 ft | 326 kts | 324° |
| 2026-04-24 04:20 | 13.75166 | 121.26065 | 14314 ft | 325 kts | 324° |
| 2026-04-24 04:20 | 13.76997 | 121.24699 | 13970 ft | 325 kts | 324° |
| 2026-04-24 04:20 | 13.78828 | 121.23333 | 13640 ft | 325 kts | 324° |
| 2026-04-24 04:21 | 13.80641 | 121.21980 | 13387 ft | 320 kts | 324° |
| 2026-04-24 04:21 | 13.82456 | 121.20627 | 12957 ft | 322 kts | 324° |
| 2026-04-24 04:21 | 13.84263 | 121.19278 | 12619 ft | 320 kts | 323° |
| 2026-04-24 04:21 | 13.86064 | 121.17934 | 12278 ft | 319 kts | 323° |
| 2026-04-24 04:22 | 13.87855 | 121.16598 | 12074 ft | 314 kts | 323° |
| 2026-04-24 04:22 | 13.89601 | 121.15294 | 11632 ft | 315 kts | 323° |
| 2026-04-24 04:22 | 13.91347 | 121.13989 | 11324 ft | 306 kts | 323° |
| 2026-04-24 04:22 | 13.93052 | 121.12715 | 10994 ft | 300 kts | 323° |
| 2026-04-24 04:23 | 13.94720 | 121.11469 | 10682 ft | 293 kts | 323° |
| 2026-04-24 04:23 | 13.96350 | 121.10250 | 10389 ft | 286 kts | 323° |
| 2026-04-24 04:23 | 13.97938 | 121.09065 | 10180 ft | 277 kts | 323° |
| 2026-04-24 04:23 | 13.99470 | 121.07920 | 10050 ft | 268 kts | 323° |
| 2026-04-24 04:24 | 14.00969 | 121.06799 | 9853 ft | 267 kts | 323° |
| 2026-04-24 04:24 | 14.02508 | 121.05648 | 9585 ft | 280 kts | 323° |
| 2026-04-24 04:24 | 14.04111 | 121.04448 | 9262 ft | 287 kts | 323° |
| 2026-04-24 04:24 | 14.05725 | 121.03241 | 8959 ft | 286 kts | 323° |
| 2026-04-24 04:25 | 14.07335 | 121.02036 | 8659 ft | 286 kts | 323° |
| 2026-04-24 04:25 | 14.08940 | 121.00835 | 8362 ft | 285 kts | 324° |
| 2026-04-24 04:25 | 14.10544 | 120.99633 | 8077 ft | 285 kts | 323° |
| 2026-04-24 04:25 | 14.12146 | 120.98429 | 7796 ft | 285 kts | 324° |
| 2026-04-24 04:26 | 14.13760 | 120.97222 | 7494 ft | 288 kts | 324° |
| 2026-04-24 04:26 | 14.15370 | 120.96022 | 7361 ft | 284 kts | 324° |
| 2026-04-24 04:26 | 14.16960 | 120.94837 | 7187 ft | 280 kts | 325° |
| 2026-04-24 04:26 | 14.18590 | 120.93760 | 7046 ft | 275 kts | 330° |
| 2026-04-24 04:27 | 14.20249 | 120.92790 | 6737 ft | 279 kts | 331° |
| 2026-04-24 04:27 | 14.21926 | 120.91822 | 6421 ft | 273 kts | 332° |
| 2026-04-24 04:27 | 14.23548 | 120.90874 | 6269 ft | 264 kts | 332° |
| 2026-04-24 04:27 | 14.25134 | 120.89943 | 6055 ft | 258 kts | 331° |
| 2026-04-24 04:28 | 14.26678 | 120.89049 | 5659 ft | 253 kts | 332° |
| 2026-04-24 04:28 | 14.28242 | 120.88124 | 4920 ft | 264 kts | 331° |
| 2026-04-24 04:28 | 14.29829 | 120.87188 | 4498 ft | 256 kts | 332° |
| 2026-04-24 04:28 | 14.31337 | 120.86304 | 4339 ft | 241 kts | 331° |
| 2026-04-24 04:29 | 14.32757 | 120.85471 | 4201 ft | 225 kts | 332° |
| 2026-04-24 04:29 | 14.34050 | 120.84714 | 4096 ft | 204 kts | 332° |
| 2026-04-24 04:29 | 14.35261 | 120.84005 | 4041 ft | 199 kts | 331° |
| 2026-04-24 04:29 | 14.36472 | 120.83300 | 3999 ft | 201 kts | 332° |
| 2026-04-24 04:30 | 14.37695 | 120.82597 | 3980 ft | 198 kts | 335° |
| 2026-04-24 04:30 | 14.38995 | 120.82383 | 3836 ft | 183 kts | 19° |
| 2026-04-24 04:30 | 14.39913 | 120.83094 | 3781 ft | 159 kts | 54° |
| 2026-04-24 04:30 | 14.40579 | 120.83970 | 3555 ft | 151 kts | 56° |
| 2026-04-24 04:31 | 14.41194 | 120.84824 | 3436 ft | 146 kts | 56° |
| 2026-04-24 04:31 | 14.41777 | 120.85721 | 3192 ft | 151 kts | 60° |
| 2026-04-24 04:31 | 14.42334 | 120.86640 | 2986 ft | 151 kts | 59° |
| 2026-04-24 04:31 | 14.42871 | 120.87575 | 2787 ft | 152 kts | 60° |
| 2026-04-24 04:32 | 14.43397 | 120.88514 | 2580 ft | 151 kts | 62° |
| 2026-04-24 04:32 | 14.43921 | 120.89453 | 2378 ft | 153 kts | 62° |
| 2026-04-24 04:32 | 14.44450 | 120.90402 | 2198 ft | 153 kts | 62° |
| 2026-04-24 04:32 | 14.44981 | 120.91357 | 1951 ft | 151 kts | 62° |
| 2026-04-24 04:33 | 14.45497 | 120.92281 | 1800 ft | 151 kts | 62° |
| 2026-04-24 04:33 | 14.46029 | 120.93240 | 1583 ft | 155 kts | 62° |
| 2026-04-24 04:33 | 14.46548 | 120.94178 | 1359 ft | 148 kts | 61° |
| 2026-04-24 04:33 | 14.47070 | 120.95118 | 1175 ft | 150 kts | 62° |
| 2026-04-24 04:34 | 14.47588 | 120.96051 | 968 ft | 153 kts | 61° |
| 2026-04-24 04:34 | 14.48109 | 120.96978 | 788 ft | 146 kts | 62° |
| 2026-04-24 04:34 | 14.48632 | 120.97900 | 672 ft | 153 kts | 63° |
| 2026-04-24 04:34 | 14.49160 | 120.98877 | 427 ft | 157 kts | 62° |
| 2026-04-24 04:35 | 14.49709 | 120.99868 | 182 ft | 159 kts | 62° |
| 2026-04-24 04:35 | 14.50246 | 121.00841 | 87 ft | 147 kts | 63° |
| 2026-04-24 04:35 | 14.50699 | 121.01661 | 62 ft | 110 kts | 58° |
| 2026-04-24 04:35 | 14.50880 | 121.01969 | 65 ft | 15 kts | 46° |
| 2026-04-24 04:36 | 14.50960 | 121.01994 | 67 ft | 5 kts | 333° |
| 2026-04-24 04:36 | 14.50981 | 121.01975 | 66 ft | 0 kts | 314° |
| 2026-04-24 04:37 | 14.50986 | 121.01969 | 66 ft | 5 kts | 314° |
| 2026-04-24 04:37 | 14.50999 | 121.01914 | 61 ft | 10 kts | 250° |
| 2026-04-24 04:37 | 14.50961 | 121.01845 | 60 ft | 12 kts | 240° |
| 2026-04-24 04:38 | 14.50913 | 121.01759 | 62 ft | 15 kts | 240° |
| 2026-04-24 04:38 | 14.50857 | 121.01658 | 65 ft | 17 kts | 240° |
| 2026-04-24 04:38 | 14.50795 | 121.01547 | 66 ft | 19 kts | 240° |
| 2026-04-24 04:38 | 14.50726 | 121.01422 | 64 ft | 21 kts | 240° |
| 2026-04-24 04:39 | 14.50654 | 121.01293 | 68 ft | 21 kts | 240° |
| 2026-04-24 04:39 | 14.50591 | 121.01171 | 64 ft | 11 kts | 263° |
| 2026-04-24 04:39 | 14.50619 | 121.01093 | 68 ft | 13 kts | 273° |
| 2026-04-24 04:39 | 14.50608 | 121.01054 | 60 ft | 1 kts | 264° |
| 2026-04-24 04:40 | 14.50632 | 121.01021 | 65 ft | 10 kts | 326° |